CheckWX is a tool to help pilots better visualize weather data.  It is not intended as a substitute for an official pre-flight weather briefing.

00:53:20 UTC

HTMU METAR
Musoma Airport
Musoma, Tanzania
Current

5 hours ago

HTMU 232000Z 00000KT 9999 FEW024CB 24/20 Q1014
Observed
Mar-23 @ 20:00 UTC
Visibility
10,000+ meters
Flight Rules
VFR
Cloud Levels
  • Few at 2,400' AGL
Temperature
24°C / 75°F
Dewpoint
20°C / 68°F
Humidity
78%
Altimeter
29.94" Hg
Pressure
1013.92 hPa
Previous

6 hours ago

HTMU 231900Z 00000KT 9999 FEW024CB 24/20 Q1012
Observed
Mar-23 @ 19:00 UTC
Visibility
10,000+ meters
Flight Rules
VFR
Cloud Levels
  • Few at 2,400' AGL
Temperature
24°C / 75°F
Dewpoint
20°C / 68°F
Humidity
78%
Altimeter
29.88" Hg
Pressure
1011.92 hPa
Previous

7 hours ago

HTMU 231800Z 00000KT 9999 FEW024CB 25/20 Q1011
Observed
Mar-23 @ 18:00 UTC
Visibility
10,000+ meters
Flight Rules
VFR
Cloud Levels
  • Few at 2,400' AGL
Temperature
25°C / 77°F
Dewpoint
20°C / 68°F
Humidity
74%
Altimeter
29.85" Hg
Pressure
1010.92 hPa